createdAt,value
2022-11-27T15:21:53.960Z,39.30
2022-11-27T15:24:36.414Z,35.70
2022-11-27T15:27:15.926Z,26.08
2022-11-27T15:30:12.338Z,24.02
2022-11-27T15:32:53.629Z,23.77
2022-11-27T15:35:36.416Z,19.75
2022-11-27T15:38:10.512Z,18.95
2022-11-27T15:40:40.792Z,18.35
2022-11-27T15:43:16.418Z,21.85
2022-11-27T15:45:44.741Z,24.15
2022-11-27T15:48:18.345Z,20.05
2022-11-27T15:50:51.352Z,20.05
2022-11-27T15:53:19.397Z,21.08
2022-11-27T15:55:47.040Z,18.25
2022-11-27T15:58:15.938Z,17.73
2022-11-27T16:00:43.656Z,17.98
2022-11-27T16:03:11.389Z,17.25
2022-11-27T16:05:39.475Z,17.42
2022-11-27T16:08:17.767Z,17.67
2022-11-27T16:10:45.418Z,17.90
2022-11-27T16:13:13.046Z,17.83
2022-11-27T16:15:40.665Z,17.52
2022-11-27T16:18:08.314Z,17.75
2022-11-27T16:20:35.968Z,17.30
2022-11-27T16:23:03.648Z,17.27
2022-11-27T16:25:31.309Z,17.45
2022-11-27T16:28:03.042Z,18.10
2022-11-27T16:30:31.734Z,18.27
2022-11-27T16:32:59.382Z,18.38
2022-11-27T16:35:27.294Z,17.77
2022-11-27T16:37:55.246Z,18.10
2022-11-27T16:40:23.917Z,18.60
2022-11-27T16:42:51.547Z,18.58
2022-11-27T16:45:19.670Z,18.98
2022-11-27T16:47:48.841Z,17.70
2022-11-27T16:50:17.918Z,17.40
2022-11-27T16:52:54.187Z,17.58
2022-11-27T16:55:26.372Z,17.48
2022-11-27T16:57:54.815Z,16.92
2022-11-27T17:00:24.150Z,17.17
2022-11-27T17:02:54.056Z,18.27
2022-11-27T17:05:23.009Z,17.45
2022-11-27T17:07:50.831Z,17.73
2022-11-27T17:10:18.552Z,17.52
2022-11-27T17:12:46.213Z,17.90
2022-11-27T17:15:14.422Z,17.50
2022-11-27T17:17:43.513Z,17.23
2022-11-27T17:20:11.398Z,17.25
2022-11-27T17:22:39.069Z,17.75
2022-11-27T17:25:10.564Z,18.33
2022-11-27T17:27:38.581Z,17.85
2022-11-27T17:30:06.961Z,17.65
2022-11-27T17:32:34.714Z,17.23
2022-11-27T17:35:02.809Z,16.40
2022-11-27T17:37:30.590Z,17.65
2022-11-27T17:39:58.220Z,17.70
2022-11-27T17:42:25.810Z,17.83
2022-11-27T17:44:53.439Z,17.67
2022-11-27T17:47:21.106Z,17.83
2022-11-27T17:49:49.611Z,17.55
2022-11-27T17:52:17.320Z,17.40
2022-11-27T17:54:45.096Z,16.63
2022-11-27T17:57:13.618Z,16.35
2022-11-27T17:59:41.745Z,16.35
2022-11-27T18:02:11.646Z,16.55
2022-11-27T18:04:40.583Z,16.88
2022-11-27T18:07:08.680Z,17.13
2022-11-27T18:09:36.502Z,16.70
2022-11-27T18:12:06.537Z,16.52
2022-11-27T18:14:35.502Z,16.08
2022-11-27T18:17:05.221Z,16.48
2022-11-27T18:19:33.052Z,16.17
2022-11-27T18:22:00.674Z,17.05
2022-11-27T18:24:28.539Z,17.30
2022-11-27T18:27:11.772Z,17.27
2022-11-27T18:29:42.977Z,17.02
2022-11-27T18:32:12.208Z,16.42
2022-11-27T18:34:40.950Z,17.08
2022-11-27T18:37:09.434Z,16.98
2022-11-27T18:39:37.987Z,17.23
2022-11-27T18:42:07.126Z,16.13
2022-11-27T18:44:44.804Z,16.83
2022-11-27T18:47:14.972Z,16.60
2022-11-27T18:49:45.381Z,16.50
2022-11-27T18:52:13.847Z,17.00
2022-11-27T18:54:41.763Z,17.08
2022-11-27T18:57:11.301Z,16.13
2022-11-27T18:59:40.359Z,17.15
2022-11-27T19:02:09.408Z,17.20
2022-11-27T19:04:40.533Z,16.45
2022-11-27T19:07:08.371Z,16.95
2022-11-27T19:09:36.403Z,16.35
2022-11-27T19:12:04.821Z,16.80
2022-11-27T19:14:34.129Z,16.80
2022-11-27T19:17:01.915Z,16.92
2022-11-27T19:22:21.146Z,17.48
2022-11-27T19:24:49.259Z,16.45
2022-11-27T19:27:17.171Z,16.13
2022-11-27T19:29:45.012Z,16.70
2022-11-27T19:32:13.212Z,16.50
2022-11-27T19:34:41.601Z,16.30
2022-11-27T19:37:10.156Z,17.13
2022-11-27T19:39:38.025Z,16.55
2022-11-27T19:42:06.736Z,16.48
2022-11-27T19:44:35.453Z,16.48
2022-11-27T19:47:03.969Z,16.80
2022-11-27T19:49:31.863Z,16.80
2022-11-27T19:52:00.164Z,17.20
2022-11-27T19:54:29.883Z,16.38
2022-11-27T19:56:58.004Z,17.15
2022-11-27T19:59:26.725Z,16.83
2022-11-27T20:01:57.361Z,16.35
2022-11-27T20:04:29.356Z,16.13
2022-11-27T20:06:57.076Z,16.25
2022-11-27T20:09:24.877Z,16.80
2022-11-27T20:11:52.711Z,16.38
2022-11-27T20:14:20.725Z,16.65
2022-11-27T20:16:48.537Z,16.33
2022-11-27T20:19:17.210Z,16.85
2022-11-27T20:21:45.859Z,17.23
2022-11-27T20:24:14.898Z,16.60
2022-11-27T20:26:43.484Z,16.65
2022-11-27T20:29:15.783Z,16.45
2022-11-27T20:31:45.181Z,17.63
2022-11-27T20:34:22.606Z,17.23
2022-11-27T20:36:50.448Z,16.75
2022-11-27T20:39:21.730Z,17.20
2022-11-27T20:41:52.258Z,16.83
2022-11-27T20:44:22.465Z,17.08
2022-11-27T20:46:51.022Z,16.27
2022-11-27T20:49:18.739Z,17.65
2022-11-27T20:51:49.237Z,17.90
2022-11-27T20:54:19.892Z,17.15
2022-11-27T20:56:51.213Z,17.17
2022-11-27T21:01:49.055Z,16.80
2022-11-27T21:04:25.879Z,17.15
2022-11-27T21:06:57.842Z,17.35
2022-11-27T21:09:25.804Z,16.55
2022-11-27T21:11:54.218Z,16.73
2022-11-27T21:14:21.947Z,17.20
2022-11-27T21:16:51.335Z,17.23
2022-11-27T21:19:25.520Z,17.17
2022-11-27T21:21:55.694Z,16.88
2022-11-27T21:24:26.160Z,16.58
2022-11-27T21:26:54.003Z,16.58
2022-11-27T21:29:25.557Z,16.35
2022-11-27T21:31:55.555Z,16.77
